Cardara, Kazakhstan
Current Conditions -  °F | °C
As of 1:30 PM on Friday 31 Oct 2014 (Local Time) from UTTT Reporting Station
Clear Clear  
Wind Chill: 54°   Ceiling: Unl
Heat Index: 54°   Visibility: 4mi
Dew Point: 27°   Wind: 4mph
Humidity: 35%   Direction: 250°WSW
Pressure: 30.24"   Gusts: NA
Location:  41.37°N, 68°E
Report Text: UTTT 310730Z 25002MPS 180V300 7000 NSC 12/M03 Q1024 R88/CLRD70NOSIG
Loading
Personal Weather Stations






























Interactive Weather Map
Tropical Storm Tracking
New forecast layout! Learn more

10-Day Weather Forecast

Advertisements
Track Severe Weather on mobile